sensor_id;sensor_type;location;lat;lon;timestamp;pressure;altitude;pressure_sealevel;temperature;humidity
14120;BME280;7138;49.246;9.100;2023-04-01T00:00:23;97280.44;;;10.95;92.29
14120;BME280;7138;49.246;9.100;2023-04-01T00:02:49;97266.56;;;10.97;91.73
14120;BME280;7138;49.246;9.100;2023-04-01T00:05:16;97273.66;;;10.91;91.60
14120;BME280;7138;49.246;9.100;2023-04-01T00:07:44;97288.31;;;10.90;91.26
14120;BME280;7138;49.246;9.100;2023-04-01T00:10:12;97291.00;;;10.86;91.69
14120;BME280;7138;49.246;9.100;2023-04-01T00:12:40;97277.84;;;10.95;91.77
14120;BME280;7138;49.246;9.100;2023-04-01T00:15:10;97277.81;;;10.96;91.44
14120;BME280;7138;49.246;9.100;2023-04-01T00:17:36;97280.66;;;10.87;90.72
14120;BME280;7138;49.246;9.100;2023-04-01T00:20:04;97295.03;;;10.97;91.17
14120;BME280;7138;49.246;9.100;2023-04-01T00:22:30;97288.94;;;11.00;90.64
14120;BME280;7138;49.246;9.100;2023-04-01T00:24:55;97283.00;;;10.96;91.03
14120;BME280;7138;49.246;9.100;2023-04-01T00:27:21;97281.41;;;10.91;91.26
14120;BME280;7138;49.246;9.100;2023-04-01T00:29:48;97283.94;;;10.92;91.15
14120;BME280;7138;49.246;9.100;2023-04-01T00:32:15;97274.56;;;10.88;91.10
14120;BME280;7138;49.246;9.100;2023-04-01T00:34:41;97287.56;;;10.85;91.42
14120;BME280;7138;49.246;9.100;2023-04-01T00:37:07;97284.03;;;10.89;91.58
14120;BME280;7138;49.246;9.100;2023-04-01T00:39:35;97288.47;;;10.84;91.67
14120;BME280;7138;49.246;9.100;2023-04-01T00:42:03;97283.59;;;10.72;91.94
14120;BME280;7138;49.246;9.100;2023-04-01T00:44:33;97290.44;;;10.73;92.20
14120;BME280;7138;49.246;9.100;2023-04-01T00:47:01;97294.75;;;10.74;92.29
14120;BME280;7138;49.246;9.100;2023-04-01T00:49:32;97287.94;;;10.70;92.87
14120;BME280;7138;49.246;9.100;2023-04-01T00:52:02;97288.69;;;10.75;92.76
14120;BME280;7138;49.246;9.100;2023-04-01T00:54:30;97288.63;;;10.78;93.11
14120;BME280;7138;49.246;9.100;2023-04-01T00:57:02;97296.47;;;10.74;93.37
14120;BME280;7138;49.246;9.100;2023-04-01T00:59:33;97267.16;;;10.75;93.47
14120;BME280;7138;49.246;9.100;2023-04-01T01:02:01;97288.88;;;10.68;93.42
14120;BME280;7138;49.246;9.100;2023-04-01T01:04:30;97284.38;;;10.76;93.43
14120;BME280;7138;49.246;9.100;2023-04-01T01:07:08;97270.41;;;10.83;93.50
14120;BME280;7138;49.246;9.100;2023-04-01T01:09:46;97278.44;;;10.72;93.11
14120;BME280;7138;49.246;9.100;2023-04-01T01:12:21;97281.19;;;10.65;94.04
14120;BME280;7138;49.246;9.100;2023-04-01T01:14:55;97271.63;;;10.68;94.25
14120;BME280;7138;49.246;9.100;2023-04-01T01:17:43;97278.72;;;10.60;94.24
14120;BME280;7138;49.246;9.100;2023-04-01T01:20:50;97253.53;;;10.68;94.33
14120;BME280;7138;49.246;9.100;2023-04-01T01:23:52;97266.91;;;10.50;94.25
14120;BME280;7138;49.246;9.100;2023-04-01T01:26:55;97262.47;;;10.55;94.42
14120;BME280;7138;49.246;9.100;2023-04-01T01:29:58;97263.16;;;10.63;94.26
14120;BME280;7138;49.246;9.100;2023-04-01T01:32:59;97253.81;;;10.58;94.25
14120;BME280;7138;49.246;9.100;2023-04-01T01:35:33;97254.25;;;10.73;93.33
14120;BME280;7138;49.246;9.100;2023-04-01T01:38:06;97233.84;;;10.63;93.22
14120;BME280;7138;49.246;9.100;2023-04-01T01:40:35;97247.56;;;10.66;93.41
14120;BME280;7138;49.246;9.100;2023-04-01T01:43:08;97245.59;;;10.76;93.44
14120;BME280;7138;49.246;9.100;2023-04-01T01:45:40;97244.63;;;10.80;92.83
14120;BME280;7138;49.246;9.100;2023-04-01T01:48:10;97240.47;;;10.74;92.37
14120;BME280;7138;49.246;9.100;2023-04-01T01:50:39;97229.50;;;10.65;92.84
14120;BME280;7138;49.246;9.100;2023-04-01T01:53:10;97234.56;;;10.69;93.07
14120;BME280;7138;49.246;9.100;2023-04-01T01:55:39;97238.06;;;10.67;92.71
14120;BME280;7138;49.246;9.100;2023-04-01T01:58:11;97233.88;;;10.61;92.10
14120;BME280;7138;49.246;9.100;2023-04-01T02:00:40;97233.13;;;10.58;92.27
14120;BME280;7138;49.246;9.100;2023-04-01T02:03:08;97234.72;;;10.62;92.36
14120;BME280;7138;49.246;9.100;2023-04-01T02:05:37;97239.13;;;10.58;92.66
14120;BME280;7138;49.246;9.100;2023-04-01T02:08:11;97237.38;;;10.60;92.44
14120;BME280;7138;49.246;9.100;2023-04-01T02:10:42;97227.69;;;10.68;92.52
14120;BME280;7138;49.246;9.100;2023-04-01T02:13:17;97225.94;;;10.69;91.36
14120;BME280;7138;49.246;9.100;2023-04-01T02:15:49;97223.16;;;10.76;91.36
14120;BME280;7138;49.246;9.100;2023-04-01T02:18:18;97224.88;;;10.77;91.28
14120;BME280;7138;49.246;9.100;2023-04-01T02:20:47;97241.19;;;10.79;91.39
14120;BME280;7138;49.246;9.100;2023-04-01T02:23:14;97235.19;;;10.79;91.52
14120;BME280;7138;49.246;9.100;2023-04-01T02:25:42;97235.94;;;10.82;92.06
14120;BME280;7138;49.246;9.100;2023-04-01T02:28:12;97231.44;;;10.90;91.99
14120;BME280;7138;49.246;9.100;2023-04-01T02:30:43;97236.75;;;10.84;92.21
14120;BME280;7138;49.246;9.100;2023-04-01T02:33:10;97241.19;;;10.79;92.06
14120;BME280;7138;49.246;9.100;2023-04-01T02:35:37;97239.59;;;10.75;91.90
14120;BME280;7138;49.246;9.100;2023-04-01T02:38:05;97231.75;;;10.78;92.30
14120;BME280;7138;49.246;9.100;2023-04-01T02:40:43;97243.66;;;10.84;91.58
14120;BME280;7138;49.246;9.100;2023-04-01T02:43:09;97241.25;;;10.76;92.46
14120;BME280;7138;49.246;9.100;2023-04-01T02:45:35;97249.00;;;10.76;91.94
14120;BME280;7138;49.246;9.100;2023-04-01T02:48:01;97246.50;;;10.73;91.83
14120;BME280;7138;49.246;9.100;2023-04-01T02:50:27;97235.84;;;10.85;91.63
14120;BME280;7138;49.246;9.100;2023-04-01T02:52:53;97248.69;;;10.88;91.35
14120;BME280;7138;49.246;9.100;2023-04-01T02:55:20;97238.34;;;10.90;91.39
14120;BME280;7138;49.246;9.100;2023-04-01T02:57:46;97241.22;;;10.78;90.73
14120;BME280;7138;49.246;9.100;2023-04-01T03:00:14;97249.00;;;10.76;91.32
14120;BME280;7138;49.246;9.100;2023-04-01T03:02:40;97248.13;;;10.77;90.99
14120;BME280;7138;49.246;9.100;2023-04-01T03:05:06;97248.06;;;10.80;91.46
14120;BME280;7138;49.246;9.100;2023-04-01T03:07:33;97254.66;;;10.92;90.98
14120;BME280;7138;49.246;9.100;2023-04-01T03:09:58;97251.13;;;10.96;90.22
14120;BME280;7138;49.246;9.100;2023-04-01T03:12:26;97253.06;;;10.88;89.75
14120;BME280;7138;49.246;9.100;2023-04-01T03:14:51;97255.91;;;10.77;89.89
14120;BME280;7138;49.246;9.100;2023-04-01T03:17:17;97251.13;;;10.96;89.96
14120;BME280;7138;49.246;9.100;2023-04-01T03:19:43;97250.66;;;10.80;89.36
14120;BME280;7138;49.246;9.100;2023-04-01T03:22:10;97252.34;;;10.81;89.23
14120;BME280;7138;49.246;9.100;2023-04-01T03:24:36;97246.94;;;10.90;88.97
14120;BME280;7138;49.246;9.100;2023-04-01T03:27:02;97249.47;;;10.93;89.13
14120;BME280;7138;49.246;9.100;2023-04-01T03:29:29;97242.50;;;10.95;88.91
14120;BME280;7138;49.246;9.100;2023-04-01T03:31:55;97245.25;;;10.89;88.58
14120;BME280;7138;49.246;9.100;2023-04-01T03:34:23;97251.44;;;10.82;88.18
14120;BME280;7138;49.246;9.100;2023-04-01T03:36:49;97244.47;;;10.86;87.59
14120;BME280;7138;49.246;9.100;2023-04-01T03:39:16;97254.19;;;10.76;88.19
14120;BME280;7138;49.246;9.100;2023-04-01T03:41:44;97254.97;;;10.80;88.08
14120;BME280;7138;49.246;9.100;2023-04-01T03:44:10;97252.19;;;10.87;87.83
14120;BME280;7138;49.246;9.100;2023-04-01T03:46:38;97255.75;;;10.83;87.76
14120;BME280;7138;49.246;9.100;2023-04-01T03:49:07;97257.25;;;10.92;87.50
14120;BME280;7138;49.246;9.100;2023-04-01T03:51:37;97246.03;;;10.91;87.17
14120;BME280;7138;49.246;9.100;2023-04-01T03:54:04;97247.19;;;10.81;87.80
14120;BME280;7138;49.246;9.100;2023-04-01T03:56:30;97265.31;;;10.80;88.08
14120;BME280;7138;49.246;9.100;2023-04-01T03:58:56;97253.28;;;10.79;88.15
14120;BME280;7138;49.246;9.100;2023-04-01T04:01:22;97257.63;;;10.77;88.50
14120;BME280;7138;49.246;9.100;2023-04-01T04:03:50;97256.59;;;10.84;88.45
14120;BME280;7138;49.246;9.100;2023-04-01T04:06:18;97257.44;;;10.84;88.21
14120;BME280;7138;49.246;9.100;2023-04-01T04:08:44;97256.66;;;10.81;88.25
14120;BME280;7138;49.246;9.100;2023-04-01T04:11:10;97254.84;;;10.84;88.69
14120;BME280;7138;49.246;9.100;2023-04-01T04:13:36;97252.19;;;10.87;88.69
14120;BME280;7138;49.246;9.100;2023-04-01T04:16:02;97262.78;;;10.78;88.58
14120;BME280;7138;49.246;9.100;2023-04-01T04:18:29;97257.59;;;10.78;89.83
14120;BME280;7138;49.246;9.100;2023-04-01T04:20:56;97257.63;;;10.77;90.17
14120;BME280;7138;49.246;9.100;2023-04-01T04:23:22;97267.31;;;10.69;91.06
14120;BME280;7138;49.246;9.100;2023-04-01T04:25:56;97270.59;;;10.75;91.00
14120;BME280;7138;49.246;9.100;2023-04-01T04:28:22;97261.13;;;10.74;90.99
14120;BME280;7138;49.246;9.100;2023-04-01T04:30:48;97259.56;;;10.69;90.99
14120;BME280;7138;49.246;9.100;2023-04-01T04:33:15;97255.97;;;10.74;91.41
14120;BME280;7138;49.246;9.100;2023-04-01T04:35:41;97263.69;;;10.76;90.80
14120;BME280;7138;49.246;9.100;2023-04-01T04:38:08;97261.44;;;10.62;90.87
14120;BME280;7138;49.246;9.100;2023-04-01T04:40:36;97260.72;;;10.56;90.60
14120;BME280;7138;49.246;9.100;2023-04-01T04:43:02;97261.28;;;10.68;90.98
14120;BME280;7138;49.246;9.100;2023-04-01T04:45:28;97264.06;;;10.61;90.65
14120;BME280;7138;49.246;9.100;2023-04-01T04:47:54;97251.81;;;10.69;90.34
14120;BME280;7138;49.246;9.100;2023-04-01T04:50:20;97253.47;;;10.71;90.38
14120;BME280;7138;49.246;9.100;2023-04-01T04:52:46;97251.53;;;10.79;90.10
14120;BME280;7138;49.246;9.100;2023-04-01T04:55:13;97244.75;;;10.75;88.79
14120;BME280;7138;49.246;9.100;2023-04-01T04:57:40;97243.91;;;10.75;88.78
14120;BME280;7138;49.246;9.100;2023-04-01T05:00:08;97250.63;;;10.82;89.19
14120;BME280;7138;49.246;9.100;2023-04-01T05:02:36;97242.97;;;10.77;88.64
14120;BME280;7138;49.246;9.100;2023-04-01T05:05:02;97242.16;;;10.75;89.22
14120;BME280;7138;49.246;9.100;2023-04-01T05:07:28;97229.09;;;10.80;88.86
14120;BME280;7138;49.246;9.100;2023-04-01T05:09:54;97240.13;;;10.88;88.31
14120;BME280;7138;49.246;9.100;2023-04-01T05:12:21;97235.06;;;10.83;87.94
14120;BME280;7138;49.246;9.100;2023-04-01T05:14:47;97238.50;;;10.84;87.64
14120;BME280;7138;49.246;9.100;2023-04-01T05:17:13;97235.84;;;10.85;87.36
14120;BME280;7138;49.246;9.100;2023-04-01T05:19:39;97240.91;;;10.90;87.27
14120;BME280;7138;49.246;9.100;2023-04-01T05:22:06;97220.41;;;10.84;87.19
14120;BME280;7138;49.246;9.100;2023-04-01T05:24:33;97236.59;;;10.90;87.49
14120;BME280;7138;49.246;9.100;2023-04-01T05:26:59;97236.63;;;10.89;86.96
14120;BME280;7138;49.246;9.100;2023-04-01T05:29:29;97231.44;;;10.90;87.32
14120;BME280;7138;49.246;9.100;2023-04-01T05:31:55;97220.94;;;10.96;87.54
14120;BME280;7138;49.246;9.100;2023-04-01T05:34:20;97229.53;;;10.97;87.40
14120;BME280;7138;49.246;9.100;2023-04-01T05:36:46;97219.84;;;11.05;86.39
14120;BME280;7138;49.246;9.100;2023-04-01T05:39:12;97215.78;;;10.95;86.61
14120;BME280;7138;49.246;9.100;2023-04-01T05:41:38;97218.91;;;11.08;87.48
14120;BME280;7138;49.246;9.100;2023-04-01T05:44:05;97217.34;;;11.01;86.26
14120;BME280;7138;49.246;9.100;2023-04-01T05:46:32;97215.44;;;11.09;86.80
14120;BME280;7138;49.246;9.100;2023-04-01T05:48:58;97209.09;;;11.19;86.55
14120;BME280;7138;49.246;9.100;2023-04-01T05:51:24;97204.69;;;11.24;86.18
14120;BME280;7138;49.246;9.100;2023-04-01T05:53:50;97206.69;;;11.13;86.13
14120;BME280;7138;49.246;9.100;2023-04-01T05:56:16;97204.06;;;11.14;86.55
14120;BME280;7138;49.246;9.100;2023-04-01T05:58:42;97198.91;;;11.14;86.77
14120;BME280;7138;49.246;9.100;2023-04-01T06:01:10;97211.78;;;11.16;86.38
14120;BME280;7138;49.246;9.100;2023-04-01T06:03:38;97212.88;;;11.07;86.30
14120;BME280;7138;49.246;9.100;2023-04-01T06:06:13;97217.13;;;11.10;86.59
14120;BME280;7138;49.246;9.100;2023-04-01T06:08:40;97213.66;;;11.11;86.25
14120;BME280;7138;49.246;9.100;2023-04-01T06:11:21;97221.31;;;11.14;85.89
14120;BME280;7138;49.246;9.100;2023-04-01T06:14:14;97222.50;;;11.02;86.47
14120;BME280;7138;49.246;9.100;2023-04-01T06:16:57;97226.91;;;10.98;87.09
14120;BME280;7138;49.246;9.100;2023-04-01T06:19:47;97219.13;;;11.00;87.08
14120;BME280;7138;49.246;9.100;2023-04-01T06:22:43;97211.31;;;11.02;87.07
14120;BME280;7138;49.246;9.100;2023-04-01T06:25:42;97234.25;;;11.14;85.70
14120;BME280;7138;49.246;9.100;2023-04-01T06:28:47;97229.63;;;10.94;86.33
14120;BME280;7138;49.246;9.100;2023-04-01T06:31:37;97222.38;;;11.07;86.59
14120;BME280;7138;49.246;9.100;2023-04-01T06:34:32;97220.44;;;11.15;86.55
14120;BME280;7138;49.246;9.100;2023-04-01T06:37:20;97220.38;;;11.18;86.47
14120;BME280;7138;49.246;9.100;2023-04-01T06:40:16;97229.00;;;11.17;87.18
14120;BME280;7138;49.246;9.100;2023-04-01T06:43:03;97226.81;;;11.02;87.76
14120;BME280;7138;49.246;9.100;2023-04-01T06:45:40;97232.16;;;10.95;88.64
14120;BME280;7138;49.246;9.100;2023-04-01T06:48:30;97222.28;;;11.10;88.26
14120;BME280;7138;49.246;9.100;2023-04-01T06:51:12;97239.66;;;11.05;89.28
14120;BME280;7138;49.246;9.100;2023-04-01T06:53:49;97228.72;;;10.95;88.83
14120;BME280;7138;49.246;9.100;2023-04-01T06:56:25;97241.66;;;10.95;89.98
14120;BME280;7138;49.246;9.100;2023-04-01T06:58:57;97243.38;;;10.94;89.77
14120;BME280;7138;49.246;9.100;2023-04-01T07:01:29;97243.50;;;10.90;90.38
14120;BME280;7138;49.246;9.100;2023-04-01T07:04:03;97235.75;;;10.90;91.04
14120;BME280;7138;49.246;9.100;2023-04-01T07:06:36;97240.06;;;10.89;91.28
14120;BME280;7138;49.246;9.100;2023-04-01T07:09:11;97245.41;;;10.83;92.71
14120;BME280;7138;49.246;9.100;2023-04-01T07:11:40;97248.84;;;10.82;93.24
14120;BME280;7138;49.246;9.100;2023-04-01T07:14:16;97234.34;;;10.78;94.39
14120;BME280;7138;49.246;9.100;2023-04-01T07:16:49;97231.75;;;10.78;94.84
14120;BME280;7138;49.246;9.100;2023-04-01T07:19:24;97233.66;;;10.70;95.61
14120;BME280;7138;49.246;9.100;2023-04-01T07:21:57;97233.63;;;10.72;96.14
14120;BME280;7138;49.246;9.100;2023-04-01T07:24:31;97231.13;;;10.69;96.24
14120;BME280;7138;49.246;9.100;2023-04-01T07:26:59;97209.91;;;10.56;96.50
14120;BME280;7138;49.246;9.100;2023-04-01T07:29:26;97230.91;;;10.76;96.23
14120;BME280;7138;49.246;9.100;2023-04-01T07:32:17;97229.25;;;10.75;96.76
14120;BME280;7138;49.246;9.100;2023-04-01T07:35:07;97226.53;;;10.80;95.93
14120;BME280;7138;49.246;9.100;2023-04-01T07:37:45;97231.16;;;10.67;95.08
14120;BME280;7138;49.246;9.100;2023-04-01T07:40:27;97238.25;;;10.59;95.29
14120;BME280;7138;49.246;9.100;2023-04-01T07:43:17;97249.28;;;10.66;96.13
14120;BME280;7138;49.246;9.100;2023-04-01T07:45:59;97246.19;;;10.52;96.99
14120;BME280;7138;49.246;9.100;2023-04-01T07:48:33;97245.19;;;10.57;97.03
14120;BME280;7138;49.246;9.100;2023-04-01T07:51:05;97247.59;;;10.65;96.36
14120;BME280;7138;49.246;9.100;2023-04-01T07:53:40;97241.56;;;10.64;96.25
14120;BME280;7138;49.246;9.100;2023-04-01T07:56:18;97244.59;;;10.46;96.73
14120;BME280;7138;49.246;9.100;2023-04-01T07:59:03;97249.28;;;10.66;97.01
14120;BME280;7138;49.246;9.100;2023-04-01T08:01:42;97245.84;;;10.65;97.53
14120;BME280;7138;49.246;9.100;2023-04-01T08:04:30;97261.72;;;10.50;97.73
14120;BME280;7138;49.246;9.100;2023-04-01T08:07:08;97258.50;;;10.40;99.25
14120;BME280;7138;49.246;9.100;2023-04-01T08:09:45;97268.00;;;10.40;99.88
14120;BME280;7138;49.246;9.100;2023-04-01T08:12:30;97249.16;;;10.35;99.13
14120;BME280;7138;49.246;9.100;2023-04-01T08:15:11;97268.03;;;10.38;100.00
14120;BME280;7138;49.246;9.100;2023-04-01T08:17:53;97264.25;;;10.53;100.00
14120;BME280;7138;49.246;9.100;2023-04-01T08:20:33;97265.47;;;10.38;98.25
14120;BME280;7138;49.246;9.100;2023-04-01T08:23:07;97267.03;;;10.44;98.92
14120;BME280;7138;49.246;9.100;2023-04-01T08:25:40;97259.88;;;10.55;98.77
14120;BME280;7138;49.246;9.100;2023-04-01T08:28:19;97263.44;;;10.51;99.44
14120;BME280;7138;49.246;9.100;2023-04-01T08:30:52;97263.50;;;10.48;99.70
14120;BME280;7138;49.246;9.100;2023-04-01T08:33:25;97259.13;;;10.52;99.55
14120;BME280;7138;49.246;9.100;2023-04-01T08:35:59;97251.09;;;10.62;99.89
14120;BME280;7138;49.246;9.100;2023-04-01T08:38:32;97258.97;;;10.58;99.44
14120;BME280;7138;49.246;9.100;2023-04-01T08:41:02;97259.81;;;10.58;99.53
14120;BME280;7138;49.246;9.100;2023-04-01T08:44:29;97263.75;;;10.37;99.44
14120;BME280;7138;49.246;9.100;2023-04-01T08:47:31;97259.34;;;10.43;99.90
14120;BME280;7138;49.246;9.100;2023-04-01T08:50:23;97236.00;;;10.46;99.65
14120;BME280;7138;49.246;9.100;2023-04-01T08:53:00;97264.25;;;10.53;98.99
14120;BME280;7138;49.246;9.100;2023-04-01T08:55:43;97270.06;;;10.61;99.30
14120;BME280;7138;49.246;9.100;2023-04-01T09:02:05;97254.16;;;10.78;98.36
14120;BME280;7138;49.246;9.100;2023-04-01T09:05:08;97243.91;;;10.75;98.85
14120;BME280;7138;49.246;9.100;2023-04-01T09:07:46;97256.03;;;10.73;98.36
14120;BME280;7138;49.246;9.100;2023-04-01T09:10:41;97259.03;;;10.90;99.01
14120;BME280;7138;49.246;9.100;2023-04-01T09:23:43;97255.75;;;10.83;100.00
14120;BME280;7138;49.246;9.100;2023-04-01T09:26:37;97267.88;;;10.81;100.00
14120;BME280;7138;49.246;9.100;2023-04-01T09:29:28;97261.13;;;10.74;100.00
14120;BME280;7138;49.246;9.100;2023-04-01T09:32:34;97263.72;;;10.74;100.00
14120;BME280;7138;49.246;9.100;2023-04-01T09:35:22;97258.56;;;10.74;100.00
14120;BME280;7138;49.246;9.100;2023-04-01T09:37:57;97260.19;;;10.78;100.00
14120;BME280;7138;49.246;9.100;2023-04-01T09:40:44;97259.88;;;10.90;100.00
14120;BME280;7138;49.246;9.100;2023-04-01T09:43:28;97268.78;;;10.79;100.00
14120;BME280;7138;49.246;9.100;2023-04-01T09:46:11;97269.75;;;10.75;100.00
14120;BME280;7138;49.246;9.100;2023-04-01T09:52:24;97270.78;;;10.68;100.00
14120;BME280;7138;49.246;9.100;2023-04-01T09:55:13;97265.44;;;10.74;100.00
14120;BME280;7138;49.246;9.100;2023-04-01T09:58:33;97277.31;;;10.82;100.00
14120;BME280;7138;49.246;9.100;2023-04-01T10:01:39;97271.97;;;10.90;100.00
14120;BME280;7138;49.246;9.100;2023-04-01T10:04:54;97274.63;;;10.85;100.00
14120;BME280;7138;49.246;9.100;2023-04-01T10:08:19;97277.75;;;11.00;100.00
14120;BME280;7138;49.246;9.100;2023-04-01T10:11:23;97287.09;;;11.04;100.00
14120;BME280;7138;49.246;9.100;2023-04-01T10:14:29;97275.03;;;11.04;100.00
14120;BME280;7138;49.246;9.100;2023-04-01T10:17:57;97288.31;;;10.90;100.00
14120;BME280;7138;49.246;9.100;2023-04-01T10:20:46;97276.03;;;10.98;100.00
14120;BME280;7138;49.246;9.100;2023-04-01T10:26:55;97286.22;;;11.05;100.00
14120;BME280;7138;49.246;9.100;2023-04-01T10:36:52;97291.41;;;11.05;100.00
14120;BME280;7138;49.246;9.100;2023-04-01T10:40:17;97296.66;;;11.02;100.00
14120;BME280;7138;49.246;9.100;2023-04-01T10:43:22;97293.28;;;10.98;100.00
14120;BME280;7138;49.246;9.100;2023-04-01T10:46:34;97295.06;;;10.96;100.00
14120;BME280;7138;49.246;9.100;2023-04-01T10:49:44;97289.84;;;10.97;100.00
14120;BME280;7138;49.246;9.100;2023-04-01T10:53:00;97289.84;;;10.97;100.00
14120;BME280;7138;49.246;9.100;2023-04-01T10:55:53;97289.53;;;11.10;100.00
14120;BME280;7138;49.246;9.100;2023-04-01T11:02:52;97277.97;;;11.24;100.00
14120;BME280;7138;49.246;9.100;2023-04-01T11:06:24;97279.72;;;11.22;100.00
14120;BME280;7138;49.246;9.100;2023-04-01T11:13:26;97289.63;;;11.07;100.00
14120;BME280;7138;49.246;9.100;2023-04-01T11:16:30;97291.56;;;11.31;100.00
14120;BME280;7138;49.246;9.100;2023-04-01T11:19:30;97296.75;;;11.31;100.00
14120;BME280;7138;49.246;9.100;2023-04-01T11:22:41;97300.03;;;11.04;100.00
14120;BME280;7138;49.246;9.100;2023-04-01T11:25:30;97294.72;;;11.10;100.00
14120;BME280;7138;49.246;9.100;2023-04-01T11:28:33;97314.44;;;11.14;100.00
14120;BME280;7138;49.246;9.100;2023-04-01T11:31:20;97304.00;;;11.18;100.00
14120;BME280;7138;49.246;9.100;2023-04-01T11:34:00;97309.56;;;11.03;100.00
14120;BME280;7138;49.246;9.100;2023-04-01T11:36:43;97305.28;;;11.01;100.00
14120;BME280;7138;49.246;9.100;2023-04-01T11:39:24;97308.63;;;11.06;100.00
14120;BME280;7138;49.246;9.100;2023-04-01T11:42:10;97312.22;;;11.00;100.00
14120;BME280;7138;49.246;9.100;2023-04-01T11:44:47;97313.97;;;11.00;100.00
14120;BME280;7138;49.246;9.100;2023-04-01T11:47:36;97304.56;;;10.95;100.00
14120;BME280;7138;49.246;9.100;2023-04-01T11:50:23;97322.97;;;10.83;100.00
14120;BME280;7138;49.246;9.100;2023-04-01T11:53:09;97315.84;;;10.91;100.00
14120;BME280;7138;49.246;9.100;2023-04-01T11:55:54;97318.66;;;10.84;100.00
14120;BME280;7138;49.246;9.100;2023-04-01T11:59:05;97325.75;;;10.76;100.00
14120;BME280;7138;49.246;9.100;2023-04-01T12:01:51;97331.72;;;10.78;100.00
14120;BME280;7138;49.246;9.100;2023-04-01T12:04:57;97326.34;;;10.85;100.00
14120;BME280;7138;49.246;9.100;2023-04-01T12:07:52;97325.53;;;10.85;100.00
14120;BME280;7138;49.246;9.100;2023-04-01T12:10:21;97333.31;;;10.83;100.00
14120;BME280;7138;49.246;9.100;2023-04-01T12:12:59;97331.44;;;10.90;100.00
14120;BME280;7138;49.246;9.100;2023-04-01T12:15:43;97338.34;;;10.89;100.00
14120;BME280;7138;49.246;9.100;2023-04-01T12:18:21;97314.59;;;11.09;100.00
14120;BME280;7138;49.246;9.100;2023-04-01T12:20:55;97329.03;;;11.16;100.00
14120;BME280;7138;49.246;9.100;2023-04-01T12:23:55;97323.44;;;11.33;100.00
14120;BME280;7138;49.246;9.100;2023-04-01T12:26:44;97323.38;;;11.36;100.00
14120;BME280;7138;49.246;9.100;2023-04-01T12:29:37;97331.06;;;11.37;100.00
14120;BME280;7138;49.246;9.100;2023-04-01T12:32:21;97338.91;;;11.36;100.00
14120;BME280;7138;49.246;9.100;2023-04-01T12:35:14;97339.22;;;11.24;100.00
14120;BME280;7138;49.246;9.100;2023-04-01T12:37:55;97339.13;;;11.27;100.00
14120;BME280;7138;49.246;9.100;2023-04-01T12:40:43;97357.09;;;11.33;100.00
14120;BME280;7138;49.246;9.100;2023-04-01T12:43:41;97351.94;;;11.31;100.00
14120;BME280;7138;49.246;9.100;2023-04-01T12:46:22;97336.56;;;11.25;100.00
14120;BME280;7138;49.246;9.100;2023-04-01T12:49:24;97352.38;;;11.15;100.00
14120;BME280;7138;49.246;9.100;2023-04-01T12:52:09;97345.25;;;11.24;100.00
14120;BME280;7138;49.246;9.100;2023-04-01T12:55:06;97354.66;;;11.27;100.00
14120;BME280;7138;49.246;9.100;2023-04-01T12:58:20;97351.25;;;11.25;100.00
14120;BME280;7138;49.246;9.100;2023-04-01T13:04:32;97349.94;;;11.42;100.00
14120;BME280;7138;49.246;9.100;2023-04-01T13:07:39;97349.13;;;11.40;100.00
14120;BME280;7138;49.246;9.100;2023-04-01T13:10:24;97351.38;;;11.52;100.00
14120;BME280;7138;49.246;9.100;2023-04-01T13:13:09;97367.94;;;11.47;100.00
14120;BME280;7138;49.246;9.100;2023-04-01T13:15:46;97362.50;;;11.58;100.00
14120;BME280;7138;49.246;9.100;2023-04-01T13:18:24;97366.84;;;11.56;100.00
14120;BME280;7138;49.246;9.100;2023-04-01T13:21:05;97372.22;;;11.48;100.00
14120;BME280;7138;49.246;9.100;2023-04-01T13:23:52;97373.66;;;11.58;100.00
14120;BME280;7138;49.246;9.100;2023-04-01T13:26:30;97365.97;;;11.57;100.00
14120;BME280;7138;49.246;9.100;2023-04-01T13:29:09;97382.06;;;11.34;100.00
14120;BME280;7138;49.246;9.100;2023-04-01T13:31:53;97364.41;;;11.49;100.00
14120;BME280;7138;49.246;9.100;2023-04-01T13:34:38;97368.78;;;11.47;100.00
14120;BME280;7138;49.246;9.100;2023-04-01T13:37:27;97377.63;;;11.39;100.00
14120;BME280;7138;49.246;9.100;2023-04-01T13:40:26;97375.94;;;11.38;100.00
14120;BME280;7138;49.246;9.100;2023-04-01T13:43:02;97382.81;;;11.39;100.00
14120;BME280;7138;49.246;9.100;2023-04-01T13:45:41;97372.00;;;11.22;100.00
14120;BME280;7138;49.246;9.100;2023-04-01T13:49:02;97381.34;;;11.29;100.00
14120;BME280;7138;49.246;9.100;2023-04-01T13:52:04;97374.91;;;11.45;100.00
14120;BME280;7138;49.246;9.100;2023-04-01T13:55:06;97400.69;;;11.48;100.00
14120;BME280;7138;49.246;9.100;2023-04-01T13:58:00;97384.25;;;11.49;100.00
14120;BME280;7138;49.246;9.100;2023-04-01T14:00:43;97392.38;;;11.35;100.00
14120;BME280;7138;49.246;9.100;2023-04-01T14:03:30;97397.19;;;11.49;100.00
14120;BME280;7138;49.246;9.100;2023-04-01T14:06:11;97380.06;;;11.45;100.00
14120;BME280;7138;49.246;9.100;2023-04-01T14:09:29;97399.91;;;11.44;100.00
14120;BME280;7138;49.246;9.100;2023-04-01T14:12:09;97388.56;;;11.50;100.00
14120;BME280;7138;49.246;9.100;2023-04-01T14:14:59;97395.28;;;11.57;100.00
14120;BME280;7138;49.246;9.100;2023-04-01T14:17:47;97404.16;;;11.47;100.00
14120;BME280;7138;49.246;9.100;2023-04-01T14:20:34;97412.72;;;11.49;100.00
14120;BME280;7138;49.246;9.100;2023-04-01T14:23:23;97400.09;;;11.37;100.00
14120;BME280;7138;49.246;9.100;2023-04-01T14:26:22;97404.59;;;11.64;100.00
14120;BME280;7138;49.246;9.100;2023-04-01T14:29:10;97403.59;;;11.36;100.00
14120;BME280;7138;49.246;9.100;2023-04-01T14:32:05;97409.72;;;11.32;100.00
14120;BME280;7138;49.246;9.100;2023-04-01T14:34:52;97417.72;;;11.23;100.00
14120;BME280;7138;49.246;9.100;2023-04-01T14:37:54;97412.09;;;11.06;100.00
14120;BME280;7138;49.246;9.100;2023-04-01T14:40:28;97410.59;;;10.95;100.00
14120;BME280;7138;49.246;9.100;2023-04-01T14:43:30;97420.00;;;10.98;100.00
14120;BME280;7138;49.246;9.100;2023-04-01T14:46:41;97426.91;;;10.99;100.00
14120;BME280;7138;49.246;9.100;2023-04-01T14:49:20;97424.25;;;11.02;100.00
14120;BME280;7138;49.246;9.100;2023-04-01T14:51:48;97420.72;;;11.05;100.00